createdAt,value
2022-09-02T00:01:22.443Z,5.38
2022-09-02T00:03:49.419Z,6.22
2022-09-02T00:06:16.490Z,2.65
2022-09-02T00:08:43.662Z,3.33
2022-09-02T00:11:19.507Z,3.92
2022-09-02T00:13:47.147Z,7.78
2022-09-02T00:16:14.346Z,7.07
2022-09-02T00:18:44.893Z,4.75
2022-09-02T00:21:14.296Z,4.95
2022-09-02T00:23:41.660Z,5.32
2022-09-02T00:26:08.617Z,6.25
2022-09-02T00:28:35.486Z,3.17
2022-09-02T00:31:02.466Z,4.38
2022-09-02T00:33:31.630Z,3.22
2022-09-02T00:36:02.297Z,4.43
2022-09-02T00:38:29.585Z,3.47
2022-09-02T00:40:56.802Z,2.22
2022-09-02T00:43:42.598Z,5.93
2022-09-02T00:46:09.773Z,4.82
2022-09-02T00:48:38.594Z,5.75
2022-09-02T00:51:06.944Z,5.53
2022-09-02T00:53:33.929Z,5.25
2022-09-02T00:56:00.799Z,4.30
2022-09-02T00:58:29.934Z,5.88
2022-09-02T01:00:57.806Z,5.80
2022-09-02T01:03:27.138Z,8.70
2022-09-02T01:05:54.762Z,8.13
2022-09-02T01:08:25.260Z,3.97
2022-09-02T01:10:56.071Z,8.65
2022-09-02T01:13:26.231Z,4.65
2022-09-02T01:15:56.752Z,5.80
2022-09-02T01:18:28.963Z,3.70
2022-09-02T01:20:57.207Z,6.15
2022-09-02T01:23:24.057Z,3.38
2022-09-02T01:25:52.115Z,5.25
2022-09-02T01:28:19.268Z,6.65
2022-09-02T01:30:52.003Z,5.40
2022-09-02T01:33:19.511Z,5.07
2022-09-02T01:35:49.287Z,9.13
2022-09-02T01:38:16.166Z,6.55
2022-09-02T01:40:43.379Z,7.32
2022-09-02T01:43:15.613Z,11.77
2022-09-02T01:45:43.294Z,7.80
2022-09-02T01:48:10.480Z,14.75
2022-09-02T01:50:41.459Z,3.90
2022-09-02T01:53:10.658Z,3.00
2022-09-02T01:55:37.535Z,4.90
2022-09-02T01:58:04.453Z,5.18
2022-09-02T02:00:31.372Z,4.15
2022-09-02T02:02:58.214Z,3.63
2022-09-02T02:05:25.178Z,3.22
2022-09-02T02:07:52.052Z,5.28
2022-09-02T02:10:19.896Z,4.57
2022-09-02T02:12:47.581Z,4.43
2022-09-02T02:15:18.306Z,3.97
2022-09-02T02:17:45.228Z,5.55
2022-09-02T02:20:16.031Z,6.10
2022-09-02T02:22:43.329Z,5.43
2022-09-02T02:25:10.376Z,4.57
2022-09-02T02:27:37.247Z,7.22
2022-09-02T02:30:06.122Z,7.18
2022-09-02T02:32:33.023Z,5.75
2022-09-02T02:34:59.831Z,5.68
2022-09-02T02:37:26.691Z,7.35
2022-09-02T02:39:53.971Z,4.40
2022-09-02T02:42:21.143Z,5.70
2022-09-02T02:44:48.019Z,8.57
2022-09-02T02:47:16.352Z,5.38
2022-09-02T02:49:43.866Z,5.70
2022-09-02T02:52:11.177Z,10.18
2022-09-02T02:54:38.288Z,6.50
2022-09-02T02:57:05.838Z,8.45
2022-09-02T02:59:32.809Z,7.80
2022-09-02T03:01:59.747Z,7.03
2022-09-02T03:04:26.650Z,6.30
2022-09-02T03:06:53.501Z,5.80
2022-09-02T03:09:20.492Z,7.40
2022-09-02T03:11:48.089Z,5.72
2022-09-02T03:14:15.077Z,9.73
2022-09-02T03:16:42.054Z,5.20
2022-09-02T03:19:09.370Z,9.23
2022-09-02T03:21:39.216Z,6.88
2022-09-02T03:24:07.102Z,9.43
2022-09-02T03:26:33.914Z,9.52
2022-09-02T03:29:00.719Z,4.88
2022-09-02T03:31:28.489Z,5.63
2022-09-02T03:33:55.572Z,7.15
2022-09-02T03:36:27.347Z,4.95
2022-09-02T03:38:54.745Z,6.32
2022-09-02T03:41:21.641Z,6.07
2022-09-02T03:43:48.694Z,6.53
2022-09-02T03:46:15.746Z,5.53
2022-09-02T03:48:42.621Z,5.43
2022-09-02T03:51:09.442Z,7.80
2022-09-02T03:53:36.689Z,4.65
2022-09-02T03:56:11.805Z,10.65
2022-09-02T03:58:40.065Z,7.30
2022-09-02T04:01:08.415Z,7.82
2022-09-02T04:03:35.319Z,9.85
2022-09-02T04:06:02.158Z,9.38
2022-09-02T04:08:29.105Z,6.50
2022-09-02T04:10:56.476Z,10.13
2022-09-02T04:13:23.656Z,7.75
2022-09-02T04:15:50.682Z,9.00
2022-09-02T04:18:17.689Z,8.07
2022-09-02T04:20:44.615Z,7.72
2022-09-02T04:23:11.573Z,7.40
2022-09-02T04:25:44.361Z,14.48
2022-09-02T04:28:11.322Z,9.82
2022-09-02T04:30:41.825Z,8.35
2022-09-02T04:33:08.882Z,8.27
2022-09-02T04:35:36.055Z,14.40
2022-09-02T04:38:03.105Z,11.88
2022-09-02T04:40:30.089Z,17.65
2022-09-02T04:42:57.053Z,14.63
2022-09-02T04:45:27.771Z,7.53
2022-09-02T04:47:56.569Z,11.40
2022-09-02T04:50:23.373Z,8.25
2022-09-02T04:52:50.189Z,10.65
2022-09-02T04:55:17.196Z,13.13
2022-09-02T04:57:44.077Z,8.80
2022-09-02T05:00:11.374Z,10.38
2022-09-02T05:02:38.342Z,10.43
2022-09-02T05:05:06.819Z,7.97
2022-09-02T05:07:36.506Z,8.68
2022-09-02T05:10:04.124Z,16.75
2022-09-02T05:12:32.475Z,11.10
2022-09-02T05:15:01.218Z,12.02
2022-09-02T05:17:29.995Z,9.48
2022-09-02T05:19:57.025Z,11.00
2022-09-02T05:22:25.455Z,12.10
2022-09-02T05:24:52.421Z,11.20
2022-09-02T05:27:20.407Z,7.93
2022-09-02T05:29:48.194Z,11.18
2022-09-02T05:32:15.069Z,10.32
2022-09-02T05:34:41.913Z,12.68
2022-09-02T05:37:09.519Z,8.30
2022-09-02T05:39:36.350Z,11.27
2022-09-02T05:42:03.187Z,12.38
2022-09-02T05:44:31.420Z,10.98
2022-09-02T05:46:58.266Z,9.88
2022-09-02T05:49:26.908Z,12.73
2022-09-02T05:51:55.810Z,11.95
2022-09-02T05:54:28.779Z,13.45
2022-09-02T05:56:56.929Z,12.10
2022-09-02T05:59:24.331Z,9.85
2022-09-02T06:01:51.482Z,12.02
2022-09-02T06:04:18.547Z,9.25
2022-09-02T06:06:45.475Z,10.75
2022-09-02T06:09:13.623Z,8.70
2022-09-02T06:11:44.673Z,13.73
2022-09-02T06:14:15.434Z,9.98
2022-09-02T06:16:42.373Z,12.23
2022-09-02T06:19:09.281Z,11.95
2022-09-02T06:21:37.136Z,13.40
2022-09-02T06:24:07.890Z,14.13
2022-09-02T06:26:34.866Z,10.77
2022-09-02T06:29:01.778Z,10.30
2022-09-02T06:31:28.782Z,17.48
2022-09-02T06:34:01.662Z,14.20
2022-09-02T06:36:30.789Z,12.43
2022-09-02T06:38:58.459Z,12.50
2022-09-02T06:41:28.349Z,13.77
2022-09-02T06:44:00.089Z,9.43
2022-09-02T06:46:29.405Z,13.13
2022-09-02T06:48:56.383Z,16.20
2022-09-02T06:51:25.192Z,14.45
2022-09-02T06:53:52.198Z,10.65
2022-09-02T06:56:19.251Z,16.05
2022-09-02T06:58:46.170Z,13.43
2022-09-02T07:01:20.340Z,12.45
2022-09-02T07:04:06.121Z,15.38
2022-09-02T07:06:37.010Z,13.90
2022-09-02T07:09:06.523Z,11.48
2022-09-02T07:11:33.632Z,18.00
2022-09-02T07:14:01.874Z,16.42
2022-09-02T07:16:30.198Z,10.63
2022-09-02T07:18:57.682Z,16.27
2022-09-02T07:21:24.540Z,12.05
2022-09-02T07:23:51.405Z,15.57
2022-09-02T07:26:18.423Z,17.55
2022-09-02T07:28:46.206Z,14.02
2022-09-02T07:31:14.673Z,14.63
2022-09-02T07:33:42.529Z,13.50
2022-09-02T07:36:12.592Z,10.57
2022-09-02T07:38:40.435Z,15.90
2022-09-02T07:41:07.874Z,14.73
2022-09-02T07:43:34.874Z,11.18
2022-09-02T07:46:02.271Z,13.70
2022-09-02T07:48:29.530Z,11.27
2022-09-02T07:50:56.747Z,15.57
2022-09-02T07:53:23.955Z,14.32
2022-09-02T07:55:50.997Z,13.18
2022-09-02T07:58:18.327Z,17.95
2022-09-02T08:00:47.095Z,14.05
2022-09-02T08:03:14.170Z,13.90
2022-09-02T08:05:41.774Z,13.75
2022-09-02T08:08:08.803Z,14.38
2022-09-02T08:10:35.918Z,10.60
2022-09-02T08:13:02.886Z,13.80
2022-09-02T08:15:30.251Z,11.40
2022-09-02T08:17:57.517Z,15.50
2022-09-02T08:20:24.486Z,13.55
2022-09-02T08:23:00.864Z,14.30
2022-09-02T08:25:37.966Z,9.23
2022-09-02T08:28:05.070Z,11.75
2022-09-02T08:30:32.102Z,12.93
2022-09-02T08:32:58.970Z,11.30
2022-09-02T08:35:25.831Z,11.07
2022-09-02T08:37:52.709Z,10.55
2022-09-02T08:40:21.019Z,11.32
2022-09-02T08:42:52.887Z,15.30
2022-09-02T08:45:38.604Z,11.02
2022-09-02T08:48:10.787Z,9.50
2022-09-02T08:50:38.502Z,16.25
2022-09-02T08:53:40.844Z,9.80
2022-09-02T08:56:09.302Z,16.30
2022-09-02T08:58:40.686Z,11.73
2022-09-02T09:01:20.017Z,12.18
2022-09-02T09:04:05.019Z,14.70
2022-09-02T09:06:57.629Z,11.88
2022-09-02T09:09:56.546Z,10.85
2022-09-02T09:12:35.584Z,9.60
2022-09-02T09:15:34.755Z,12.18
2022-09-02T09:18:05.118Z,17.85
2022-09-02T09:20:39.289Z,9.98
2022-09-02T09:23:34.296Z,9.07
2022-09-02T09:26:11.095Z,10.65
2022-09-02T09:28:46.007Z,10.88
2022-09-02T09:31:15.697Z,11.15
2022-09-02T09:34:05.431Z,15.15
2022-09-02T09:36:44.886Z,12.38
2022-09-02T09:39:31.167Z,11.63
2022-09-02T09:42:04.466Z,11.07
2022-09-02T09:44:43.345Z,13.15
2022-09-02T09:47:17.913Z,14.40
2022-09-02T09:49:45.711Z,9.55
2022-09-02T09:52:12.571Z,10.23
2022-09-02T09:54:39.419Z,8.50
2022-09-02T09:57:21.939Z,13.27
2022-09-02T09:59:50.028Z,14.90
2022-09-02T10:02:24.985Z,9.52
2022-09-02T10:04:55.855Z,9.65
2022-09-02T10:07:56.252Z,8.73
2022-09-02T10:10:27.218Z,10.95
2022-09-02T10:12:56.126Z,9.95
2022-09-02T10:15:38.803Z,12.38
2022-09-02T10:18:38.664Z,10.13
2022-09-02T10:21:20.391Z,9.15
2022-09-02T10:24:20.834Z,14.25
2022-09-02T10:26:49.367Z,13.15
2022-09-02T10:29:16.785Z,8.73
2022-09-02T10:32:17.583Z,7.90
2022-09-02T10:35:10.590Z,9.10
2022-09-02T10:37:57.398Z,9.15
2022-09-02T10:40:35.343Z,12.18
2022-09-02T10:43:06.741Z,6.90
2022-09-02T10:45:50.959Z,8.02
2022-09-02T10:48:23.863Z,8.02
2022-09-02T10:51:05.635Z,7.55
2022-09-02T10:53:44.695Z,7.72
2022-09-02T10:56:21.717Z,5.88
2022-09-02T10:59:03.142Z,9.32
2022-09-02T11:01:35.092Z,8.65
2022-09-02T11:04:06.337Z,7.20
2022-09-02T11:06:52.053Z,6.85
2022-09-02T11:09:35.232Z,8.43
2022-09-02T11:12:18.498Z,5.65
2022-09-02T11:15:04.444Z,5.47
2022-09-02T11:17:36.149Z,9.00
2022-09-02T11:20:17.548Z,6.38
2022-09-02T11:23:23.099Z,8.38
2022-09-02T11:26:04.434Z,7.45
2022-09-02T11:28:33.558Z,6.45
2022-09-02T11:31:07.570Z,6.65
2022-09-02T11:33:55.602Z,6.07
2022-09-02T11:36:22.796Z,5.28
2022-09-02T11:39:05.734Z,6.35
2022-09-02T11:41:57.125Z,5.18
2022-09-02T11:44:52.237Z,5.95
2022-09-02T11:47:25.998Z,9.32
2022-09-02T11:50:07.844Z,5.60
2022-09-02T11:52:58.132Z,5.40
2022-09-02T11:55:29.307Z,6.22
2022-09-02T11:57:57.738Z,4.40
2022-09-02T12:00:27.266Z,6.25
2022-09-02T12:03:51.887Z,3.35
2022-09-02T12:06:13.821Z,5.22
2022-09-02T12:08:42.999Z,6.18
2022-09-02T12:11:12.175Z,3.83
2022-09-02T12:13:43.569Z,5.97
2022-09-02T12:16:16.282Z,5.85
2022-09-02T12:18:43.837Z,6.30
2022-09-02T12:21:21.813Z,5.80
2022-09-02T12:23:53.970Z,7.47
2022-09-02T12:26:24.570Z,5.90
2022-09-02T12:28:54.187Z,6.88
2022-09-02T12:31:44.013Z,5.93
2022-09-02T12:34:23.062Z,3.90
2022-09-02T12:36:59.525Z,8.45
2022-09-02T12:39:28.419Z,5.18
2022-09-02T12:42:07.357Z,4.57
2022-09-02T12:44:55.057Z,5.95
2022-09-02T12:47:33.905Z,5.53
2022-09-02T12:50:20.326Z,6.63
2022-09-02T12:52:48.499Z,6.65
2022-09-02T12:55:18.545Z,8.35
2022-09-02T12:57:47.413Z,4.93
2022-09-02T13:00:16.102Z,4.88
2022-09-02T13:03:17.164Z,10.77
2022-09-02T13:06:21.425Z,40.58
2022-09-02T13:09:06.067Z,6.80
2022-09-02T13:12:10.179Z,8.52
2022-09-02T13:15:04.190Z,5.95
2022-09-02T13:17:42.073Z,7.03
2022-09-02T13:20:36.969Z,6.80
2022-09-02T13:23:35.277Z,7.05
2022-09-02T13:26:02.282Z,5.15
2022-09-02T13:28:32.183Z,6.53
2022-09-02T13:31:04.589Z,7.78
2022-09-02T13:33:31.475Z,7.63
2022-09-02T13:35:59.469Z,3.65
2022-09-02T13:38:27.806Z,4.85
2022-09-02T13:40:54.783Z,5.32
2022-09-02T13:43:24.130Z,4.90
2022-09-02T13:45:51.481Z,3.75
2022-09-02T13:48:25.962Z,7.68
2022-09-02T13:50:59.917Z,4.25
2022-09-02T13:53:53.865Z,5.57
2022-09-02T13:56:29.158Z,5.22
2022-09-02T13:58:57.143Z,4.97
2022-09-02T14:01:37.300Z,4.63
2022-09-02T14:04:07.217Z,4.38
2022-09-02T14:06:36.779Z,5.85
2022-09-02T14:09:06.602Z,3.60
2022-09-02T14:11:40.389Z,3.88
2022-09-02T14:14:07.278Z,6.35
2022-09-02T14:16:35.440Z,4.90
2022-09-02T14:19:14.586Z,4.53
2022-09-02T14:21:48.767Z,5.32
2022-09-02T14:24:18.636Z,5.63
2022-09-02T14:26:46.703Z,4.20
2022-09-02T14:29:17.883Z,5.45
2022-09-02T14:31:45.312Z,3.97
2022-09-02T14:34:38.087Z,4.45
2022-09-02T14:37:34.090Z,6.45
2022-09-02T14:40:12.216Z,4.65
2022-09-02T14:42:52.722Z,5.63
2022-09-02T14:45:30.467Z,4.38
2022-09-02T14:47:58.700Z,4.65
2022-09-02T14:50:32.752Z,5.03
2022-09-02T14:53:05.959Z,5.00
2022-09-02T14:55:44.914Z,4.53
2022-09-02T14:58:11.871Z,5.20
2022-09-02T15:00:39.299Z,4.72
2022-09-02T15:03:07.045Z,5.57
2022-09-02T15:05:33.981Z,5.57
2022-09-02T15:08:00.955Z,5.82
2022-09-02T15:10:27.967Z,5.30
2022-09-02T15:12:56.034Z,7.93
2022-09-02T15:15:23.268Z,4.47
2022-09-02T15:17:50.195Z,6.55
2022-09-02T15:20:17.665Z,11.00
2022-09-02T15:22:44.628Z,5.82
2022-09-02T15:25:11.572Z,4.78
2022-09-02T15:27:38.688Z,5.25
2022-09-02T15:30:06.646Z,4.85
2022-09-02T15:32:33.530Z,7.07
2022-09-02T15:35:00.365Z,4.85
2022-09-02T15:37:27.957Z,4.90
2022-09-02T15:39:54.979Z,5.63
2022-09-02T15:42:22.182Z,7.13
2022-09-02T15:44:49.031Z,3.53
2022-09-02T15:47:15.898Z,9.18
2022-09-02T15:49:42.891Z,6.55
2022-09-02T15:52:10.198Z,3.55
2022-09-02T15:54:37.018Z,6.53
2022-09-02T15:57:03.965Z,3.88
2022-09-02T15:59:30.899Z,7.25
2022-09-02T16:02:00.958Z,5.22
2022-09-02T16:04:27.835Z,4.50
2022-09-02T16:06:54.707Z,6.88
2022-09-02T16:09:21.817Z,8.80
2022-09-02T16:11:50.518Z,6.05
2022-09-02T16:14:20.892Z,4.55
2022-09-02T16:16:49.380Z,7.75
2022-09-02T16:19:16.576Z,6.35
2022-09-02T16:21:43.446Z,7.05
2022-09-02T16:24:10.445Z,7.78
2022-09-02T16:26:38.454Z,6.90
2022-09-02T16:29:09.430Z,5.60
2022-09-02T16:31:38.376Z,6.32
2022-09-02T16:34:09.481Z,7.22
2022-09-02T16:36:38.227Z,5.68
2022-09-02T16:39:05.391Z,13.38
2022-09-02T16:41:39.518Z,14.40
2022-09-02T16:44:08.047Z,13.45
2022-09-02T16:46:35.727Z,8.18
2022-09-02T16:49:02.774Z,7.32
2022-09-02T16:51:33.526Z,7.43
2022-09-02T16:54:01.686Z,11.23
2022-09-02T16:56:28.689Z,7.38
2022-09-02T16:58:55.514Z,8.35
2022-09-02T17:01:23.098Z,7.60
2022-09-02T17:03:50.728Z,9.25
2022-09-02T17:06:17.737Z,7.20
2022-09-02T17:08:44.557Z,11.38
2022-09-02T17:11:33.726Z,7.53
2022-09-02T17:14:04.262Z,9.20
2022-09-02T17:16:33.200Z,8.25
2022-09-02T17:19:00.309Z,8.82
2022-09-02T17:21:30.992Z,11.02
2022-09-02T17:23:58.062Z,8.13
2022-09-02T17:26:26.549Z,7.22
2022-09-02T17:28:55.678Z,11.70
2022-09-02T17:31:24.776Z,9.50
2022-09-02T17:33:52.199Z,8.40
2022-09-02T17:36:19.191Z,6.50
2022-09-02T17:38:46.312Z,6.15
2022-09-02T17:41:31.999Z,5.20
2022-09-02T17:43:58.831Z,4.90
2022-09-02T17:46:26.567Z,6.03
2022-09-02T17:49:15.181Z,6.20
2022-09-02T17:51:40.422Z,7.93
2022-09-02T17:54:08.046Z,5.95
2022-09-02T17:57:03.375Z,8.00
2022-09-02T18:00:00.531Z,5.85
2022-09-02T18:02:36.520Z,7.65
2022-09-02T18:05:17.032Z,7.57
2022-09-02T18:08:01.238Z,7.43
2022-09-02T18:10:34.127Z,8.20
2022-09-02T18:13:13.694Z,7.00
2022-09-02T18:16:04.969Z,8.18
2022-09-02T18:18:31.843Z,5.57
2022-09-02T18:21:03.947Z,5.20
2022-09-02T18:23:52.734Z,6.82
2022-09-02T18:26:19.538Z,5.82
2022-09-02T18:29:04.896Z,8.85
2022-09-02T18:32:10.011Z,5.07
2022-09-02T18:34:59.206Z,6.18
2022-09-02T18:37:46.151Z,4.28
2022-09-02T18:40:27.622Z,6.78
2022-09-02T18:43:13.581Z,5.82
2022-09-02T18:45:50.038Z,4.20
2022-09-02T18:48:31.851Z,4.88
2022-09-02T18:51:07.010Z,5.15
2022-09-02T18:53:42.929Z,5.82
2022-09-02T18:56:10.522Z,5.50
2022-09-02T18:58:40.069Z,7.65
2022-09-02T19:01:14.408Z,4.43
2022-09-02T19:03:41.411Z,5.30
2022-09-02T19:06:12.318Z,3.75
2022-09-02T19:08:39.566Z,6.47
2022-09-02T19:11:14.366Z,4.72
2022-09-02T19:13:52.993Z,6.30
2022-09-02T19:16:25.306Z,5.43
2022-09-02T19:18:52.570Z,8.43
2022-09-02T19:21:31.713Z,4.97
2022-09-02T19:23:58.619Z,6.85
2022-09-02T19:26:25.467Z,6.72
2022-09-02T19:28:52.378Z,9.93
2022-09-02T19:31:21.997Z,11.50
2022-09-02T19:33:52.733Z,4.82
2022-09-02T19:36:21.252Z,6.97
2022-09-02T19:38:48.131Z,6.60
2022-09-02T19:41:15.028Z,6.57
2022-09-02T19:43:42.549Z,7.80
2022-09-02T19:46:27.759Z,6.07
2022-09-02T19:48:58.102Z,8.52
2022-09-02T19:51:27.244Z,6.95
2022-09-02T19:53:56.543Z,10.18
2022-09-02T19:56:23.467Z,9.32
2022-09-02T19:58:50.327Z,8.43
2022-09-02T20:01:17.183Z,6.47
2022-09-02T20:03:46.557Z,6.25
2022-09-02T20:06:13.392Z,6.97
2022-09-02T20:08:40.261Z,5.78
2022-09-02T20:11:07.090Z,6.95
2022-09-02T20:13:41.426Z,10.43
2022-09-02T20:16:19.955Z,4.75
2022-09-02T20:18:48.373Z,5.82
2022-09-02T20:21:22.202Z,5.00
2022-09-02T20:23:49.023Z,5.70
2022-09-02T20:26:49.195Z,9.05
2022-09-02T20:29:56.804Z,5.80
2022-09-02T20:32:32.038Z,8.88
2022-09-02T20:35:13.781Z,6.00
2022-09-02T20:38:05.275Z,5.05
2022-09-02T20:40:53.431Z,5.05
2022-09-02T20:43:41.194Z,4.97
2022-09-02T20:46:08.947Z,6.35
2022-09-02T20:48:40.917Z,7.57
2022-09-02T20:51:19.155Z,4.97
2022-09-02T20:54:04.348Z,7.78
2022-09-02T20:56:56.049Z,5.47
2022-09-02T20:59:43.830Z,4.53
2022-09-02T21:02:12.357Z,6.15
2022-09-02T21:04:56.890Z,6.15
2022-09-02T21:07:26.011Z,6.00
2022-09-02T21:10:06.742Z,10.30
2022-09-02T21:12:53.879Z,7.82
2022-09-02T21:15:49.586Z,5.70
2022-09-02T21:18:37.833Z,7.68
2022-09-02T21:21:11.145Z,8.30
2022-09-02T21:24:00.984Z,7.82
2022-09-02T21:26:48.291Z,9.65
2022-09-02T21:29:18.567Z,12.15
2022-09-02T21:32:00.546Z,10.63
2022-09-02T21:34:34.060Z,11.43
2022-09-02T21:37:02.694Z,9.38
2022-09-02T21:39:31.335Z,12.15
2022-09-02T21:42:43.903Z,11.63
2022-09-02T21:45:16.557Z,9.65
2022-09-02T21:47:48.525Z,13.18
2022-09-02T21:50:22.331Z,13.07
2022-09-02T21:52:58.615Z,12.50
2022-09-02T21:55:44.628Z,12.20
2022-09-02T21:58:52.082Z,11.60
2022-09-02T22:01:27.940Z,12.15
2022-09-02T22:03:58.906Z,11.73
2022-09-02T22:06:37.472Z,11.30
2022-09-02T22:09:10.917Z,9.18
2022-09-02T22:11:59.115Z,13.23
2022-09-02T22:14:49.274Z,12.38
2022-09-02T22:17:22.751Z,13.13
2022-09-02T22:19:54.197Z,11.07
2022-09-02T22:22:24.489Z,12.02
2022-09-02T22:24:52.050Z,11.02
2022-09-02T22:27:22.686Z,13.65
2022-09-02T22:30:13.087Z,16.20
2022-09-02T22:32:50.302Z,14.07
2022-09-02T22:35:31.568Z,19.90
2022-09-02T22:38:26.624Z,12.43
2022-09-02T22:41:01.941Z,12.40
2022-09-02T22:43:36.044Z,13.13
2022-09-02T22:46:28.764Z,16.88
2022-09-02T22:49:19.152Z,18.52
2022-09-02T22:52:07.897Z,17.70
2022-09-02T22:54:34.742Z,20.48
2022-09-02T22:57:09.042Z,23.55
2022-09-02T22:59:53.899Z,19.67
2022-09-02T23:02:27.986Z,19.13
2022-09-02T23:04:54.824Z,19.35
2022-09-02T23:07:23.634Z,21.20
2022-09-02T23:09:54.827Z,17.98
2022-09-02T23:12:34.218Z,18.40
2022-09-02T23:15:32.963Z,18.33
2022-09-02T23:18:11.824Z,14.30
2022-09-02T23:21:25.982Z,15.50
2022-09-02T23:24:02.003Z,13.50
2022-09-02T23:26:34.430Z,14.23
2022-09-02T23:29:16.508Z,13.85
2022-09-02T23:32:04.922Z,7.75
2022-09-02T23:34:34.735Z,7.50
2022-09-02T23:37:18.143Z,11.43
2022-09-02T23:40:19.634Z,8.77
2022-09-02T23:42:46.999Z,8.02
2022-09-02T23:45:32.961Z,6.18
2022-09-02T23:48:31.534Z,4.70
2022-09-02T23:51:05.452Z,6.97
2022-09-02T23:53:51.069Z,10.57
2022-09-02T23:56:46.511Z,5.40
2022-09-02T23:59:25.048Z,5.40
